Time;durP1;ratioP1;P1;durP2;ratioP2;P2;SDS_P1;SDS_P2;PMS_P1;PMS_P2;Temp;Humidity;BMP_temperature;BMP_pressure;BME280_temperature;BME280_humidity;BME280_pressure;Samples;Min_cycle;Max_cycle;Signal;HPM_P1;HPM_P2
2022/08/27 00:00:14;;;;;;;9.98;4.13;;;;;;;16.03;81.41;101738.81;5092976;28;20108;-75
2022/08/27 00:02:40;;;;;;;9.82;4.03;;;;;;;15.87;82.91;101741.66;5092602;28;20023;-74
2022/08/27 00:05:06;;;;;;;13.07;4.38;;;;;;;15.75;83.72;101745.97;5093305;28;20073;-84
2022/08/27 00:07:32;;;;;;;10.80;3.88;;;;;;;15.58;84.87;101735.84;5093303;28;20020;-81
2022/08/27 00:09:57;;;;;;;10.73;4.43;;;;;;;15.46;85.26;101729.75;5092963;28;20039;-83
2022/08/27 00:12:22;;;;;;;11.38;4.57;;;;;;;15.49;85.15;101739.09;5093022;28;20040;-84
2022/08/27 00:14:48;;;;;;;9.63;4.40;;;;;;;15.44;85.37;101746.41;5093167;28;20114;-82
2022/08/27 00:17:13;;;;;;;11.60;4.20;;;;;;;15.37;85.78;101737.34;5093213;28;20449;-80
2022/08/27 00:19:39;;;;;;;9.10;4.00;;;;;;;15.29;85.85;101737.88;5093204;28;20032;-74
2022/08/27 00:22:05;;;;;;;11.40;4.72;;;;;;;15.24;85.70;101720.88;5092897;28;20414;-81
2022/08/27 00:24:31;;;;;;;11.13;4.43;;;;;;;15.19;86.19;101732.44;5090891;28;20031;-81
2022/08/27 00:26:57;;;;;;;10.65;4.53;;;;;;;15.08;86.45;101716.75;5092717;28;20022;-85
2022/08/27 00:29:25;;;;;;;14.27;4.90;;;;;;;14.95;86.46;101695.09;5093089;28;20459;-83
2022/08/27 00:31:51;;;;;;;15.65;5.55;;;;;;;15.13;87.02;101732.84;5093207;28;20379;-85
2022/08/27 00:34:16;;;;;;;17.83;6.15;;;;;;;15.06;87.37;101723.00;5092996;28;20029;-77
2022/08/27 00:36:42;;;;;;;15.02;5.32;;;;;;;15.08;87.09;101732.34;5092871;28;20035;-83
2022/08/27 00:39:08;;;;;;;13.65;5.82;;;;;;;15.00;87.73;101724.22;5092883;28;20455;-80
2022/08/27 00:41:33;;;;;;;14.05;6.07;;;;;;;15.00;87.76;101726.81;5092576;28;20118;-75
2022/08/27 00:44:00;;;;;;;12.80;6.00;;;;;;;14.96;88.56;101727.97;5092933;28;20028;-79
2022/08/27 00:46:26;;;;;;;13.82;6.35;;;;;;;14.95;88.87;101725.50;5093188;28;20399;-85
2022/08/27 00:48:54;;;;;;;14.40;5.40;;;;;;;14.86;88.59;101716.53;5092676;28;20043;-83
2022/08/27 00:51:20;;;;;;;13.63;5.38;;;;;;;14.72;89.08;101699.22;5092624;28;20031;-74
2022/08/27 00:53:47;;;;;;;14.32;5.57;;;;;;;14.67;89.50;101698.72;5074242;28;20036;-82
2022/08/27 00:56:18;;;;;;;11.38;5.63;;;;;;;14.80;89.86;101737.72;5092443;28;20420;-84
2022/08/27 00:58:50;;;;;;;14.00;5.55;;;;;;;14.49;90.30;101682.56;5092800;28;20422;-82
2022/08/27 01:01:19;;;;;;;11.68;5.53;;;;;;;14.74;89.85;101732.91;5074603;28;20024;-76
2022/08/27 01:03:48;;;;;;;12.00;5.30;;;;;;;14.68;90.41;101721.19;5092712;28;20038;-85
2022/08/27 01:06:16;;;;;;;14.88;5.15;;;;;;;14.69;90.33;101727.22;5092536;28;20021;-76
2022/08/27 01:08:49;;;;;;;12.88;6.38;;;;;;;14.68;90.64;101733.34;5092186;28;20551;-73
2022/08/27 01:11:15;;;;;;;11.45;5.38;;;;;;;14.62;90.84;101719.81;5092423;28;20035;-74
2022/08/27 01:13:41;;;;;;;11.90;5.50;;;;;;;14.46;90.94;101702.72;5092411;28;20106;-78
2022/08/27 01:16:09;;;;;;;10.68;5.28;;;;;;;14.42;91.02;101711.59;5092524;28;20027;-75
2022/08/27 01:18:36;;;;;;;15.00;5.90;;;;;;;14.46;91.40;101728.72;5092386;28;20019;-80
2022/08/27 01:21:10;;;;;;;12.02;6.13;;;;;;;14.48;91.81;101727.69;5092479;28;20024;-79
2022/08/27 01:24:07;;;;;;;11.27;4.93;;;;;;;14.43;91.42;101718.47;5092446;28;20088;-82
2022/08/27 01:26:33;;;;;;;11.63;5.57;;;;;;;14.41;92.03;101715.16;5092327;28;20356;-80
2022/08/27 01:28:58;;;;;;;13.85;5.53;;;;;;;14.39;92.45;101714.41;5092487;28;20025;-75
2022/08/27 01:31:23;;;;;;;12.98;5.50;;;;;;;14.35;92.70;101711.16;5092391;28;20029;-81
2022/08/27 01:33:58;;;;;;;12.98;5.72;;;;;;;14.26;92.46;101719.59;5092175;28;20035;-80
2022/08/27 01:36:24;;;;;;;13.57;5.80;;;;;;;14.23;92.82;101720.59;5096000;28;20031;-79
2022/08/27 01:38:49;;;;;;;12.65;5.32;;;;;;;13.96;93.00;101683.38;5096112;28;20024;-81
2022/08/27 01:41:16;;;;;;;10.43;5.57;;;;;;;13.81;93.02;101669.63;5095818;28;20034;-79
2022/08/27 01:43:42;;;;;;;13.48;5.82;;;;;;;14.01;93.10;101712.50;5096046;28;20028;-80
2022/08/27 01:46:08;;;;;;;9.38;5.30;;;;;;;13.86;93.00;101688.31;5096032;28;20065;-83
2022/08/27 01:48:36;;;;;;;10.73;6.10;;;;;;;13.90;94.35;101692.41;5095573;28;20487;-79
2022/08/27 01:51:02;;;;;;;14.20;6.30;;;;;;;13.96;94.36;101688.56;5096157;28;20050;-81
2022/08/27 01:53:27;;;;;;;13.70;6.10;;;;;;;14.09;94.26;101712.84;5095826;28;20475;-83
2022/08/27 01:55:53;;;;;;;13.05;6.50;;;;;;;14.07;94.33;101706.94;5095952;28;20028;-74
2022/08/27 01:58:23;;;;;;;11.30;6.45;;;;;;;14.06;94.61;101698.31;5095680;28;20031;-85
2022/08/27 02:00:53;;;;;;;15.05;5.95;;;;;;;14.17;94.99;101702.81;5095642;28;20035;-74
2022/08/27 02:03:18;;;;;;;15.38;6.60;;;;;;;13.99;94.27;101673.66;5095550;28;20375;-74
2022/08/27 02:05:45;;;;;;;11.77;5.95;;;;;;;14.14;94.53;101694.38;5095630;28;20023;-73
2022/08/27 02:08:14;;;;;;;12.48;5.55;;;;;;;14.19;94.42;101700.94;5095502;28;20024;-82
2022/08/27 02:10:42;;;;;;;10.73;6.30;;;;;;;14.18;94.85;101701.88;5095715;28;20039;-82
2022/08/27 02:13:08;;;;;;;10.38;5.88;;;;;;;14.13;94.38;101703.94;5095185;28;20032;-82
2022/08/27 02:15:35;;;;;;;12.07;5.90;;;;;;;14.17;94.30;101707.19;5095278;28;20422;-75
2022/08/27 02:18:02;;;;;;;16.77;6.50;;;;;;;14.14;94.73;101699.56;5095273;28;20140;-76
2022/08/27 02:20:27;;;;;;;10.85;5.65;;;;;;;13.98;94.63;101682.38;5095647;28;20108;-84
2022/08/27 02:22:53;;;;;;;11.20;5.90;;;;;;;14.03;94.76;101693.28;5095412;28;20106;-78
2022/08/27 02:25:20;;;;;;;11.13;6.32;;;;;;;14.05;94.66;101700.97;5060096;28;20036;-74
2022/08/27 02:27:47;;;;;;;11.65;5.97;;;;;;;14.03;95.22;101695.06;5094889;28;20028;-80
2022/08/27 02:30:16;;;;;;;9.43;5.60;;;;;;;14.02;95.65;101698.59;5076829;28;20024;-77
2022/08/27 02:32:42;;;;;;;13.77;7.05;;;;;;;13.95;95.93;101684.31;5094895;28;20024;-80
2022/08/27 02:35:08;;;;;;;15.25;7.10;;;;;;;13.99;96.21;101678.00;5095268;28;20028;-79
2022/08/27 02:37:34;;;;;;;11.65;6.65;;;;;;;13.93;95.97;101688.78;5095153;28;20382;-79
2022/08/27 02:40:00;;;;;;;15.65;7.32;;;;;;;13.95;96.51;101694.69;5095104;28;20027;-81
2022/08/27 02:42:25;;;;;;;13.18;7.15;;;;;;;13.91;96.10;101691.47;5095073;28;20421;-74
2022/08/27 02:44:51;;;;;;;15.23;7.10;;;;;;;13.80;96.31;101673.16;5094765;28;20085;-77
2022/08/27 02:47:17;;;;;;;13.20;6.60;;;;;;;13.81;96.07;101687.78;5093910;28;20060;-78
2022/08/27 02:49:43;;;;;;;14.88;7.30;;;;;;;13.78;97.05;101675.00;5094683;28;20043;-84
2022/08/27 02:52:08;;;;;;;15.65;6.90;;;;;;;13.68;96.92;101676.53;5094649;28;20024;-80
2022/08/27 02:54:34;;;;;;;13.85;7.28;;;;;;;13.72;97.11;101683.16;5094795;28;20029;-75
2022/08/27 02:56:59;;;;;;;12.20;7.25;;;;;;;13.65;97.03;101690.50;5094636;28;20020;-76
2022/08/27 02:59:24;;;;;;;15.20;7.30;;;;;;;13.67;97.82;101690.44;5094515;28;20111;-79
2022/08/27 03:01:50;;;;;;;13.85;6.97;;;;;;;13.55;97.87;101681.63;5094493;28;20471;-74
2022/08/27 03:04:18;;;;;;;14.10;7.43;;;;;;;13.56;98.36;101675.50;5094461;28;20032;-75
2022/08/27 03:06:44;;;;;;;12.75;7.63;;;;;;;13.59;98.85;101677.09;5094433;28;20016;-79
2022/08/27 03:09:10;;;;;;;15.70;7.30;;;;;;;13.66;98.48;101691.34;5094673;28;20437;-74
2022/08/27 03:11:35;;;;;;;11.75;7.10;;;;;;;13.43;98.62;101648.66;5094178;28;20112;-75
2022/08/27 03:14:01;;;;;;;12.57;6.60;;;;;;;13.66;98.58;101686.13;5076165;28;20115;-83
2022/08/27 03:16:26;;;;;;;13.38;7.38;;;;;;;13.55;98.62;101660.03;5094311;28;20036;-76
2022/08/27 03:18:52;;;;;;;14.65;7.10;;;;;;;13.58;98.27;101685.81;5094616;28;20024;-82
2022/08/27 03:21:23;;;;;;;13.88;7.00;;;;;;;13.64;98.87;101693.19;5094185;28;20107;-75
2022/08/27 03:23:49;;;;;;;12.65;7.38;;;;;;;13.64;98.48;101690.59;5094196;28;20436;-79
2022/08/27 03:26:15;;;;;;;13.57;7.40;;;;;;;13.67;99.00;101693.03;5093952;28;20102;-82
2022/08/27 03:28:41;;;;;;;12.93;7.65;;;;;;;13.59;98.90;101672.72;5093858;28;20067;-84
2022/08/27 03:31:12;;;;;;;13.65;7.00;;;;;;;13.76;99.09;101698.47;5093945;28;20020;-75
2022/08/27 03:33:38;;;;;;;13.88;7.07;;;;;;;13.79;98.93;101692.25;5093811;28;20059;-77
2022/08/27 03:36:06;;;;;;;15.25;7.00;;;;;;;13.84;99.32;101689.34;5093814;28;20476;-75
2022/08/27 03:38:31;;;;;;;12.23;6.75;;;;;;;13.86;98.95;101693.50;5094087;28;20027;-84
2022/08/27 03:40:57;;;;;;;13.48;7.28;;;;;;;13.87;99.16;101694.38;5093719;28;20107;-77
2022/08/27 03:43:22;;;;;;;12.25;6.85;;;;;;;13.73;98.87;101670.09;5093581;28;20020;-84
2022/08/27 03:45:51;;;;;;;16.95;7.43;;;;;;;13.86;98.59;101697.88;5093652;28;20031;-84
2022/08/27 03:48:17;;;;;;;14.10;6.90;;;;;;;13.86;98.97;101701.31;5075296;28;20373;-84
2022/08/27 03:50:45;;;;;;;15.18;6.85;;;;;;;13.80;98.71;101706.06;5093421;28;20157;-74
2022/08/27 03:53:12;;;;;;;14.65;7.10;;;;;;;13.73;98.58;101697.81;5093529;28;20027;-74
2022/08/27 03:55:37;;;;;;;11.45;7.10;;;;;;;13.67;99.13;101690.44;5093501;28;20109;-85
2022/08/27 03:58:02;;;;;;;12.73;7.32;;;;;;;13.51;98.77;101671.53;5092625;28;20047;-78
2022/08/27 04:00:28;;;;;;;12.98;6.97;;;;;;;13.47;98.84;101676.94;5093369;28;20028;-74
2022/08/27 04:02:54;;;;;;;14.05;7.07;;;;;;;13.54;98.86;101695.53;5093422;28;20032;-83
2022/08/27 04:05:21;;;;;;;13.10;6.82;;;;;;;13.46;98.69;101695.16;5093275;28;20357;-84
2022/08/27 04:07:47;;;;;;;12.93;6.60;;;;;;;13.47;99.51;101702.03;5093335;28;20032;-85
2022/08/27 04:10:14;;;;;;;15.60;7.25;;;;;;;13.40;99.30;101700.75;5093250;28;20035;-85
2022/08/27 04:12:41;;;;;;;16.15;7.82;;;;;;;13.24;99.62;101680.06;5093242;28;20471;-74
2022/08/27 04:15:08;;;;;;;13.80;7.40;;;;;;;13.25;99.63;101693.88;5092998;28;20106;-74
2022/08/27 04:17:33;;;;;;;15.00;7.72;;;;;;;13.00;99.55;101655.59;5093190;28;20081;-83
2022/08/27 04:19:59;;;;;;;15.13;7.55;;;;;;;13.17;99.34;101695.16;5093137;28;20031;-82
2022/08/27 04:22:25;;;;;;;12.30;7.28;;;;;;;13.02;99.71;101671.88;5092932;28;20027;-82
2022/08/27 04:24:51;;;;;;;12.00;7.20;;;;;;;13.12;99.58;101685.97;5093176;28;20024;-80
2022/08/27 04:27:17;;;;;;;10.30;7.25;;;;;;;13.11;99.65;101694.69;5093005;28;20123;-74
2022/08/27 04:29:43;;;;;;;15.05;7.75;;;;;;;13.09;99.48;101687.00;5092891;28;20028;-75
2022/08/27 04:32:09;;;;;;;11.50;7.22;;;;;;;13.08;99.45;101694.88;5092904;28;20058;-78
2022/08/27 04:34:34;;;;;;;11.90;7.15;;;;;;;13.05;99.62;101697.63;5092871;28;20108;-73
2022/08/27 04:37:00;;;;;;;11.82;7.20;;;;;;;13.02;99.71;101697.81;5074398;28;20036;-78
2022/08/27 04:39:27;;;;;;;13.48;7.07;;;;;;;12.99;99.93;101704.03;5092370;28;20031;-73
2022/08/27 04:41:58;;;;;;;11.93;7.40;;;;;;;12.96;100.00;101705.94;5074666;28;20177;-80
2022/08/27 04:44:26;;;;;;;11.32;7.15;;;;;;;12.86;100.00;101690.09;5092610;28;20031;-83
2022/08/27 04:47:04;;;;;;;11.25;6.65;;;;;;;12.98;100.00;101698.91;5092708;28;20025;-76
2022/08/27 04:49:29;;;;;;;13.10;7.47;;;;;;;13.01;100.00;101707.34;5092478;28;20047;-86
2022/08/27 04:51:55;;;;;;;11.85;7.95;;;;;;;13.02;100.00;101711.63;5092719;28;20025;-85
2022/08/27 04:54:21;;;;;;;11.68;7.13;;;;;;;13.07;100.00;101700.94;5092612;28;20024;-74
2022/08/27 04:56:47;;;;;;;17.88;7.38;;;;;;;13.12;100.00;101704.97;5092641;28;20023;-77
2022/08/27 04:59:12;;;;;;;12.90;7.35;;;;;;;13.14;100.00;101705.69;5092709;28;20025;-74
2022/08/27 05:01:39;;;;;;;10.73;7.32;;;;;;;13.23;100.00;101711.28;5092531;28;20016;-74
2022/08/27 05:04:06;;;;;;;12.63;7.93;;;;;;;13.22;100.00;101701.84;5092330;28;20032;-74
2022/08/27 05:06:33;;;;;;;14.00;8.52;;;;;;;13.29;100.00;101711.75;5092748;28;20028;-74
2022/08/27 05:08:58;;;;;;;14.45;8.23;;;;;;;13.31;100.00;101706.47;5092764;28;20024;-75
2022/08/27 05:11:27;;;;;;;14.25;8.82;;;;;;;13.30;100.00;101699.63;5096609;28;20077;-81
2022/08/27 05:13:53;;;;;;;13.38;8.65;;;;;;;13.34;100.00;101695.91;5096618;28;20024;-78
2022/08/27 05:16:20;;;;;;;14.55;8.80;;;;;;;13.51;100.00;101713.88;5096432;28;20075;-79
2022/08/27 05:18:47;;;;;;;16.70;9.15;;;;;;;13.61;100.00;101714.16;5096289;28;20012;-79
2022/08/27 05:21:22;;;;;;;13.50;7.85;;;;;;;13.98;100.00;101713.53;5078398;28;20045;-86
2022/08/27 05:23:48;;;;;;;12.40;7.55;;;;;;;14.43;100.00;101685.53;5097097;28;20020;-76
2022/08/27 05:26:14;;;;;;;10.93;7.30;;;;;;;15.01;100.00;101714.66;5096934;28;20058;-83
2022/08/27 05:28:40;;;;;;;13.40;7.82;;;;;;;15.23;99.54;101714.03;5096409;28;20414;-82
2022/08/27 05:31:08;;;;;;;11.00;7.28;;;;;;;15.28;97.97;101710.19;5096088;28;20020;-78
2022/08/27 05:33:34;;;;;;;12.85;6.97;;;;;;;15.45;97.48;101702.03;5096336;28;20024;-79
2022/08/27 05:36:00;;;;;;;13.90;6.90;;;;;;;15.62;95.58;101713.06;5096570;28;20028;-80
2022/08/27 05:38:29;;;;;;;13.70;7.03;;;;;;;15.82;94.77;101719.47;5096398;28;20089;-80
2022/08/27 05:41:04;;;;;;;10.00;5.88;;;;;;;15.89;94.55;101700.69;5078029;28;20032;-81
2022/08/27 05:43:30;;;;;;;9.80;6.80;;;;;;;15.55;93.49;101665.78;5096346;28;20024;-79
2022/08/27 05:45:55;;;;;;;11.30;6.82;;;;;;;16.05;93.12;101718.69;5095779;28;20033;-80
2022/08/27 05:48:21;;;;;;;12.77;7.00;;;;;;;16.05;91.82;101716.91;5095705;28;20044;-81
2022/08/27 05:50:46;;;;;;;12.18;7.00;;;;;;;16.19;92.19;101709.88;5095989;28;20081;-84
2022/08/27 05:53:12;;;;;;;17.52;7.70;;;;;;;15.99;91.23;101682.63;5095778;28;20032;-81
2022/08/27 05:55:40;;;;;;;13.05;6.72;;;;;;;16.09;90.73;101675.00;5096009;28;20036;-81
2022/08/27 05:58:07;;;;;;;13.52;7.35;;;;;;;16.48;90.64;101720.75;5095890;28;20024;-80
2022/08/27 06:03:22;;;;;;;13.30;6.22;;;;;;;16.68;89.36;101721.91;5096043;28;20198;-81
2022/08/27 06:05:48;;;;;;;23.20;8.05;;;;;;;16.75;88.57;101718.75;5077464;28;20050;-80
2022/08/27 06:08:13;;;;;;;13.98;6.88;;;;;;;16.69;87.86;101714.00;5077071;28;20032;-82
2022/08/27 06:10:41;;;;;;;10.98;6.35;;;;;;;16.90;87.83;101728.03;5095733;28;20028;-82
2022/08/27 06:13:07;;;;;;;15.00;6.72;;;;;;;16.14;86.12;101615.56;5095274;28;20115;-78
2022/08/27 06:15:32;;;;;;;13.95;6.97;;;;;;;16.85;86.35;101731.94;5095522;28;20031;-79
2022/08/27 06:17:57;;;;;;;14.25;7.53;;;;;;;16.84;86.40;101730.28;5095379;28;20024;-79
2022/08/27 06:20:23;;;;;;;13.40;7.03;;;;;;;16.79;85.47;101725.41;5095402;28;20506;-83
2022/08/27 06:22:48;;;;;;;12.40;6.28;;;;;;;16.94;86.53;101733.88;5094572;28;20103;-83
2022/08/27 06:25:13;;;;;;;11.52;5.65;;;;;;;16.85;86.73;101696.25;5095437;28;20132;-79
2022/08/27 06:27:39;;;;;;;10.57;5.40;;;;;;;17.13;86.36;101725.47;5095156;28;20257;-81
2022/08/27 06:30:04;;;;;;;17.23;6.57;;;;;;;17.20;85.75;101722.25;5095294;28;20027;-80
2022/08/27 06:32:30;;;;;;;15.18;6.65;;;;;;;17.27;84.56;101734.84;5094953;28;20067;-80
2022/08/27 06:34:55;;;;;;;13.88;5.80;;;;;;;17.17;84.70;101719.88;5095247;28;20024;-81
2022/08/27 06:37:24;;;;;;;12.10;6.55;;;;;;;17.25;84.43;101732.34;5095296;28;20020;-80
2022/08/27 06:39:50;;;;;;;13.85;6.05;;;;;;;16.97;84.37;101665.78;5095148;28;20027;-80
2022/08/27 06:42:23;;;;;;;12.32;6.32;;;;;;;16.98;83.85;101645.75;5094895;28;20052;-82
2022/08/27 06:44:53;;;;;;;11.90;5.97;;;;;;;17.49;82.69;101729.63;5094878;28;20472;-81
2022/08/27 06:47:21;;;;;;;11.82;5.50;;;;;;;17.44;82.79;101711.72;5094897;28;20382;-82
2022/08/27 06:49:46;;;;;;;12.20;6.15;;;;;;;17.30;82.88;101692.84;5094728;28;20115;-82
2022/08/27 06:52:12;;;;;;;12.00;5.97;;;;;;;17.49;82.21;101733.06;5094805;28;20044;-82
2022/08/27 06:54:39;;;;;;;14.30;5.95;;;;;;;17.41;82.03;101711.13;5094699;28;20536;-82
2022/08/27 06:57:04;;;;;;;13.63;6.18;;;;;;;17.49;82.24;101706.94;5094531;28;20537;-83
2022/08/27 06:59:30;;;;;;;9.93;5.80;;;;;;;17.48;80.73;101686.19;5094650;28;20028;-82
2022/08/27 07:01:55;;;;;;;10.90;5.70;;;;;;;17.81;80.88;101728.94;5094626;28;20077;-82
2022/08/27 07:04:24;;;;;;;10.05;5.53;;;;;;;17.72;80.75;101709.59;5094509;28;20462;-88
2022/08/27 07:06:50;;;;;;;10.05;5.55;;;;;;;18.06;80.06;101726.00;5094853;28;20032;-80
2022/08/27 07:09:16;;;;;;;10.85;5.75;;;;;;;18.20;78.49;101727.53;5094458;28;20157;-81
2022/08/27 07:11:42;;;;;;;12.02;5.32;;;;;;;18.17;78.09;101723.34;5094347;28;20081;-85
2022/08/27 07:14:08;;;;;;;12.00;5.55;;;;;;;18.15;78.72;101725.28;5094143;28;20521;-83
2022/08/27 07:16:34;;;;;;;12.93;6.40;;;;;;;18.11;76.38;101733.50;5094503;28;20028;-81
2022/08/27 07:19:02;;;;;;;13.90;6.05;;;;;;;18.04;77.71;101707.00;5094410;28;20020;-82
2022/08/27 07:21:27;;;;;;;11.05;5.57;;;;;;;18.39;77.39;101742.56;5094375;28;20491;-84
2022/08/27 07:23:55;;;;;;;9.85;5.93;;;;;;;18.59;76.25;101741.75;5094085;28;20020;-82
2022/08/27 07:26:22;;;;;;;10.73;7.13;;;;;;;18.62;75.25;101733.66;5087089;28;20024;-81
2022/08/27 07:28:48;;;;;;;12.50;6.35;;;;;;;18.69;74.76;101732.22;5094257;28;20102;-80
2022/08/27 07:31:15;;;;;;;10.65;5.88;;;;;;;18.83;74.38;101746.75;5093748;28;20106;-80
2022/08/27 07:33:41;;;;;;;11.10;5.47;;;;;;;18.73;74.18;101717.91;5093861;28;20036;-80
2022/08/27 07:36:07;;;;;;;12.27;7.43;;;;;;;18.73;73.44;101720.53;5093954;28;20024;-84
2022/08/27 07:38:34;;;;;;;14.50;7.13;;;;;;;18.98;73.12;101753.34;5093715;28;20056;-81
2022/08/27 07:41:04;;;;;;;10.55;6.90;;;;;;;18.94;73.01;101743.25;5093320;28;20049;-81
2022/08/27 07:46:12;;;;;;;16.95;5.47;;;;;;;19.18;73.12;101749.88;5093759;28;20570;-80
2022/08/27 07:48:38;;;;;;;13.55;7.50;;;;;;;18.78;72.95;101710.53;5093383;28;20123;-81
2022/08/27 07:51:04;;;;;;;13.80;7.38;;;;;;;19.02;72.83;101746.88;5093559;28;20024;-82
2022/08/27 07:53:33;;;;;;;16.17;7.65;;;;;;;18.89;73.73;101733.19;5093261;28;20028;-84
2022/08/27 07:56:06;;;;;;;14.07;7.90;;;;;;;18.91;73.68;101721.63;5093659;28;20052;-84
2022/08/27 07:58:32;;;;;;;12.93;7.70;;;;;;;18.67;72.26;101692.25;5093606;28;20039;-91
2022/08/27 08:00:58;;;;;;;15.25;7.65;;;;;;;18.87;70.73;101733.28;5093660;28;20085;-83
2022/08/27 08:03:26;;;;;;;14.55;7.45;;;;;;;18.82;70.80;101737.25;5093439;28;20016;-82
2022/08/27 08:05:56;;;;;;;10.93;5.65;;;;;;;18.30;71.67;101647.38;5074307;28;20032;-82
2022/08/27 08:08:23;;;;;;;12.48;5.20;;;;;;;18.51;71.36;101642.16;5093470;28;20148;-81
2022/08/27 08:10:48;;;;;;;13.07;5.60;;;;;;;18.96;70.44;101696.81;5093356;28;20023;-84
2022/08/27 08:13:26;;;;;;;11.60;5.93;;;;;;;19.54;70.00;101760.78;5093236;28;20032;-82
2022/08/27 08:15:51;;;;;;;8.73;3.70;;;;;;;18.99;68.61;101610.22;5093498;28;20548;-84
2022/08/27 08:18:19;;;;;;;10.10;3.90;;;;;;;19.38;64.62;101677.47;5087501;28;20027;-83
2022/08/27 08:20:46;;;;;;;9.13;3.65;;;;;;;19.96;67.10;101748.41;5075344;28;20020;-84
2022/08/27 08:23:11;;;;;;;10.05;3.38;;;;;;;19.68;65.95;101708.06;5093256;28;20085;-84
2022/08/27 08:25:37;;;;;;;7.85;3.65;;;;;;;19.96;63.52;101760.66;5092633;28;20020;-82
2022/08/27 08:28:10;;;;;;;7.68;3.35;;;;;;;19.38;63.21;101676.63;5074681;28;20099;-82
2022/08/27 08:30:36;;;;;;;10.77;3.40;;;;;;;19.93;62.25;101756.50;5092903;28;20379;-85
2022/08/27 08:33:16;;;;;;;8.40;3.78;;;;;;;19.12;63.07;101608.19;5092532;28;20028;-82
2022/08/27 08:35:41;;;;;;;10.82;3.22;;;;;;;19.43;59.61;101645.63;5092676;28;20066;-81
2022/08/27 08:38:14;;;;;;;9.68;2.72;;;;;;;19.49;60.44;101601.38;5092870;28;20016;-82
2022/08/27 08:40:42;;;;;;;10.32;3.05;;;;;;;20.19;59.80;101691.28;5092808;28;20077;-81
2022/08/27 08:43:20;;;;;;;8.23;2.90;;;;;;;21.02;60.18;101760.69;5087375;28;20471;-76
2022/08/27 08:45:47;;;;;;;8.50;2.53;;;;;;;21.29;57.17;101761.75;5092908;28;20525;-78
2022/08/27 08:48:28;;;;;;;8.80;3.17;;;;;;;21.41;60.69;101736.94;5092547;28;20123;-75
2022/08/27 08:51:06;;;;;;;7.85;2.60;;;;;;;21.66;57.17;101759.94;5074527;28;20070;-73
2022/08/27 08:53:45;;;;;;;9.02;3.10;;;;;;;21.75;56.67;101763.50;5092694;28;20463;-75
2022/08/27 08:56:18;;;;;;;9.90;2.80;;;;;;;21.73;56.35;101766.28;5092474;28;20024;-71
2022/08/27 08:58:50;;;;;;;8.95;3.30;;;;;;;21.59;56.23;101761.47;5092737;28;20107;-72
2022/08/27 09:01:19;;;;;;;8.60;2.90;;;;;;;21.65;55.88;101768.78;5092494;28;20024;-72
2022/08/27 09:04:01;;;;;;;9.60;3.00;;;;;;;21.90;57.97;101769.06;5074261;28;20054;-76
2022/08/27 09:06:57;;;;;;;8.10;2.58;;;;;;;21.86;54.87;101770.34;5092697;28;20031;-76
2022/08/27 09:09:36;;;;;;;7.57;2.78;;;;;;;21.64;53.11;101764.50;5092525;28;20042;-72
2022/08/27 09:12:17;;;;;;;8.40;2.70;;;;;;;21.53;54.56;101777.00;5092279;28;20103;-73
2022/08/27 09:15:18;;;;;;;7.38;2.78;;;;;;;21.64;56.00;101767.16;5092531;28;20024;-75
2022/08/27 09:17:46;;;;;;;7.22;2.65;;;;;;;21.55;53.99;101767.19;5010310;28;20049;-73
2022/08/27 09:20:13;;;;;;;9.85;2.78;;;;;;;21.68;55.04;101779.00;5010096;28;20116;-74
2022/08/27 09:22:57;;;;;;;8.77;3.28;;;;;;;21.72;54.18;101772.47;5010600;28;20045;-75
2022/08/27 09:25:31;;;;;;;8.43;2.70;;;;;;;21.20;56.42;101761.59;5010517;28;20026;-72
2022/08/27 09:28:01;;;;;;;10.32;3.30;;;;;;;20.92;57.16;101781.69;5010423;28;20474;-73
2022/08/27 09:30:31;;;;;;;8.98;3.08;;;;;;;20.68;56.93;101783.13;5010297;28;20064;-72
2022/08/27 09:33:05;;;;;;;8.98;3.00;;;;;;;20.71;59.73;101775.78;5010371;28;20088;-72
2022/08/27 09:35:41;;;;;;;7.85;2.78;;;;;;;20.72;58.82;101769.56;5009998;28;20030;-72
2022/08/27 09:38:06;;;;;;;7.93;2.88;;;;;;;20.72;58.05;101772.19;5005590;28;20032;-72
2022/08/27 09:40:40;;;;;;;7.97;2.53;;;;;;;20.84;58.85;101772.88;5010851;28;20457;-77
2022/08/27 09:43:22;;;;;;;9.93;3.20;;;;;;;21.01;58.46;101766.06;5010272;28;20068;-75
2022/08/27 09:45:58;;;;;;;8.23;2.85;;;;;;;21.33;55.47;101763.09;5010142;28;20494;-75
2022/08/27 09:48:30;;;;;;;9.10;3.10;;;;;;;21.78;55.45;101760.56;5010064;28;20045;-72
2022/08/27 09:51:08;;;;;;;6.85;3.08;;;;;;;22.15;54.67;101764.94;5010275;28;20041;-75
2022/08/27 09:53:46;;;;;;;13.80;3.25;;;;;;;22.02;52.90;101759.97;5023759;28;20043;-73
2022/08/27 09:56:26;;;;;;;9.98;2.60;;;;;;;21.83;54.29;101770.63;5092261;28;20028;-73
2022/08/27 09:59:02;;;;;;;7.85;2.50;;;;;;;21.62;52.79;101757.72;5095673;28;20032;-79
2022/08/27 10:01:31;;;;;;;9.52;2.80;;;;;;;21.55;52.83;101769.81;5095974;28;20027;-81
2022/08/27 10:04:12;;;;;;;9.30;2.40;;;;;;;21.83;53.68;101766.22;5095791;28;20137;-73
2022/08/27 10:06:43;;;;;;;7.72;2.63;;;;;;;22.16;52.41;101772.69;5095342;28;20490;-73
2022/08/27 10:09:24;;;;;;;6.95;2.35;;;;;;;22.46;52.65;101768.84;5095688;28;20024;-82
2022/08/27 10:11:54;;;;;;;7.22;2.80;;;;;;;22.58;50.31;101770.25;5095407;28;20471;-72
2022/08/27 10:14:33;;;;;;;8.02;2.38;;;;;;;22.52;50.54;101773.50;5095591;28;20039;-80
2022/08/27 10:17:27;;;;;;;5.85;2.20;;;;;;;22.56;51.18;101768.75;5095233;28;20020;-73
2022/08/27 10:20:33;;;;;;;8.30;2.38;;;;;;;22.61;50.51;101769.97;5095219;28;20035;-81
2022/08/27 10:23:21;;;;;;;7.13;2.40;;;;;;;22.43;50.61;101750.72;5008461;28;20486;-72
2022/08/27 10:25:54;;;;;;;6.95;1.95;;;;;;;22.61;50.32;101763.84;5013486;28;20037;-72
2022/08/27 10:28:35;;;;;;;10.13;2.15;;;;;;;22.71;51.82;101750.59;5012930;28;20674;-74
2022/08/27 10:31:12;;;;;;;9.63;2.20;;;;;;;22.91;49.80;101760.03;5012929;28;20532;-74
2022/08/27 10:34:10;;;;;;;5.95;2.17;;;;;;;23.07;50.93;101761.91;5012669;28;20038;-72
2022/08/27 10:36:36;;;;;;;7.00;2.40;;;;;;;22.95;48.49;101752.63;5001124;28;20066;-73
2022/08/27 10:39:08;;;;;;;7.85;2.40;;;;;;;22.88;49.18;101762.94;4993280;28;20081;-82
2022/08/27 10:41:41;;;;;;;10.60;2.55;;;;;;;22.68;49.78;101758.81;4976540;28;20514;-73
2022/08/27 10:44:29;;;;;;;10.35;2.55;;;;;;;22.58;50.54;101762.34;4993224;28;20073;-75
2022/08/27 10:47:30;;;;;;;7.57;2.33;;;;;;;22.43;51.07;101763.88;4993242;28;20121;-73
2022/08/27 10:50:01;;;;;;;6.05;2.30;;;;;;;22.46;51.76;101758.31;4993069;28;20616;-72
2022/08/27 10:52:36;;;;;;;5.90;2.03;;;;;;;22.81;50.80;101751.34;4993018;28;20137;-71
2022/08/27 10:55:05;;;;;;;8.38;2.75;;;;;;;22.87;48.02;101714.72;4992832;28;20034;-73
2022/08/27 10:57:39;;;;;;;6.45;2.33;;;;;;;22.97;48.16;101751.47;4992891;28;20062;-75
2022/08/27 11:00:17;;;;;;;7.40;2.00;;;;;;;22.74;49.62;101753.78;5063246;28;20088;-72
2022/08/27 11:02:48;;;;;;;6.40;1.95;;;;;;;22.60;48.50;101756.94;5074162;28;20086;-71
2022/08/27 11:05:31;;;;;;;5.50;1.92;;;;;;;22.32;50.04;101751.78;5073761;28;20032;-78
2022/08/27 11:08:06;;;;;;;7.47;2.30;;;;;;;22.11;50.99;101743.34;5073768;28;20463;-74
2022/08/27 11:10:39;;;;;;;6.15;1.80;;;;;;;22.27;50.80;101750.56;5074004;28;20503;-72
2022/08/27 11:13:16;;;;;;;6.28;2.35;;;;;;;22.50;50.85;101754.38;5073935;28;20051;-76
2022/08/27 11:15:47;;;;;;;10.85;2.17;;;;;;;22.66;50.32;101753.69;5074068;28;20543;-74
2022/08/27 11:18:52;;;;;;;6.97;2.20;;;;;;;22.85;50.29;101750.91;5074135;28;20070;-73
2022/08/27 11:21:41;;;;;;;6.95;2.33;;;;;;;22.95;50.54;101727.09;5073641;28;20112;-73
2022/08/27 11:24:16;;;;;;;5.97;2.20;;;;;;;23.30;49.46;101755.13;5073602;28;20028;-77
2022/08/27 11:26:43;;;;;;;8.40;1.75;;;;;;;23.27;46.49;101744.06;5073716;28;20031;-78
2022/08/27 11:29:25;;;;;;;7.85;1.88;;;;;;;23.21;48.14;101750.00;5073680;28;20016;-75
2022/08/27 11:31:59;;;;;;;6.25;2.30;;;;;;;23.20;47.67;101751.78;5073872;28;20036;-76
2022/08/27 11:35:00;;;;;;;6.18;2.30;;;;;;;23.15;49.61;101723.28;5085496;28;20031;-72